createdAt,value
2022-10-23T00:00:24.961Z,19.92
2022-10-23T00:01:38.371Z,20.61
2022-10-23T00:02:40.366Z,20.28
2022-10-23T00:03:42.501Z,20.16
2022-10-23T00:04:45.067Z,20.40
2022-10-23T00:05:46.836Z,20.13
2022-10-23T00:06:50.040Z,20.52
2022-10-23T00:07:53.332Z,20.42
2022-10-23T00:08:56.050Z,19.76
2022-10-23T00:09:57.801Z,19.71
2022-10-23T00:10:59.578Z,19.55
2022-10-23T00:12:01.299Z,19.73
2022-10-23T00:13:03.131Z,19.90
2022-10-23T00:14:07.241Z,20.50
2022-10-23T00:15:09.249Z,20.37
2022-10-23T00:16:11.197Z,20.19
2022-10-23T00:17:13.106Z,20.20
2022-10-23T00:18:15.060Z,20.25
2022-10-23T00:19:17.031Z,20.49
2022-10-23T00:20:19.021Z,20.49
2022-10-23T00:21:21.514Z,19.75
2022-10-23T00:22:23.258Z,20.20
2022-10-23T00:23:25.357Z,20.26
2022-10-23T00:24:27.203Z,20.21
2022-10-23T00:25:29.012Z,20.19
2022-10-23T00:26:30.716Z,20.06
2022-10-23T00:27:32.647Z,19.52
2022-10-23T00:28:35.048Z,20.18
2022-10-23T00:29:36.998Z,20.16
2022-10-23T00:30:38.721Z,19.63
2022-10-23T00:31:40.583Z,20.16
2022-10-23T00:32:42.283Z,20.26
2022-10-23T00:33:44.986Z,20.41
2022-10-23T00:34:46.717Z,19.52
2022-10-23T00:35:48.630Z,19.91
2022-10-23T00:36:50.387Z,20.13
2022-10-23T00:37:52.127Z,20.39
2022-10-23T00:38:53.901Z,20.08
2022-10-23T00:39:56.030Z,20.12
2022-10-23T00:40:57.872Z,20.11
2022-10-23T00:42:00.410Z,20.11
2022-10-23T00:43:02.643Z,19.51
2022-10-23T00:44:30.448Z,20.45
2022-10-23T00:45:33.569Z,19.40
2022-10-23T00:46:36.867Z,20.40
2022-10-23T00:47:39.066Z,19.26
2022-10-23T00:48:40.959Z,20.00
2022-10-23T00:49:42.931Z,20.24
2022-10-23T00:50:46.609Z,19.06
2022-10-23T00:51:57.270Z,20.06
2022-10-23T00:53:02.301Z,20.18
2022-10-23T00:54:23.864Z,20.28
2022-10-23T00:55:27.180Z,19.73
2022-10-23T00:56:30.795Z,19.68
2022-10-23T00:57:32.617Z,20.08
2022-10-23T00:58:34.460Z,20.27
2022-10-23T00:59:36.337Z,19.82
2022-10-23T01:00:46.359Z,20.19
2022-10-23T01:01:49.127Z,19.85
2022-10-23T01:02:52.230Z,19.89
2022-10-23T01:03:54.161Z,19.97
2022-10-23T01:04:55.993Z,19.96
2022-10-23T01:06:13.709Z,20.02
2022-10-23T01:07:19.581Z,20.33
2022-10-23T01:08:34.850Z,20.23
2022-10-23T01:09:36.943Z,20.33
2022-10-23T01:10:54.609Z,20.14
2022-10-23T01:12:19.553Z,19.06
2022-10-23T01:13:35.362Z,20.35
2022-10-23T01:14:47.417Z,19.82
2022-10-23T01:16:11.699Z,20.21
2022-10-23T01:17:49.328Z,20.37
2022-10-23T01:19:13.730Z,20.41
2022-10-23T01:20:40.748Z,20.40
2022-10-23T01:21:45.327Z,20.34
2022-10-23T01:23:11.613Z,20.20
2022-10-23T01:24:27.429Z,20.33
2022-10-23T01:25:47.567Z,20.30
2022-10-23T01:27:13.910Z,20.29
2022-10-23T01:28:25.687Z,20.08
2022-10-23T01:29:39.656Z,20.16
2022-10-23T01:30:44.787Z,20.25
2022-10-23T01:32:17.558Z,20.08
2022-10-23T01:33:27.742Z,19.80
2022-10-23T01:34:59.846Z,20.12
2022-10-23T01:36:05.951Z,19.85
2022-10-23T01:37:13.132Z,20.00
2022-10-23T01:38:42.553Z,20.02
2022-10-23T01:39:55.363Z,20.17
2022-10-23T01:41:15.575Z,20.24
2022-10-23T01:42:22.067Z,20.21
2022-10-23T01:43:32.312Z,20.03
2022-10-23T01:44:39.784Z,20.16
2022-10-23T01:45:45.889Z,19.84
2022-10-23T01:46:53.351Z,19.31
2022-10-23T01:47:56.739Z,19.42
2022-10-23T01:49:01.141Z,20.13
2022-10-23T01:50:06.175Z,20.03
2022-10-23T01:51:13.309Z,20.01
2022-10-23T01:52:17.707Z,19.38
2022-10-23T01:53:23.116Z,19.88
2022-10-23T01:54:30.164Z,20.11
2022-10-23T01:55:33.502Z,19.24
2022-10-23T01:56:43.521Z,19.85
2022-10-23T01:57:48.620Z,19.91
2022-10-23T01:58:53.774Z,19.49
2022-10-23T02:00:01.854Z,19.84
2022-10-23T02:01:07.161Z,20.10
2022-10-23T02:02:24.363Z,20.13
2022-10-23T02:03:30.189Z,19.90
2022-10-23T02:04:40.781Z,19.95
2022-10-23T02:05:44.174Z,19.69
2022-10-23T02:06:46.078Z,19.98
2022-10-23T02:07:48.409Z,19.79
2022-10-23T02:08:50.259Z,19.13
2022-10-23T02:09:52.338Z,19.83
2022-10-23T02:11:05.296Z,20.06
2022-10-23T02:12:19.130Z,19.98
2022-10-23T02:13:33.324Z,19.62
2022-10-23T02:14:52.103Z,20.12
2022-10-23T02:16:05.924Z,19.41
2022-10-23T02:17:16.888Z,19.64
2022-10-23T02:18:31.805Z,20.15
2022-10-23T02:19:38.733Z,19.79
2022-10-23T02:20:57.002Z,20.02
2022-10-23T02:22:18.179Z,19.41
2022-10-23T02:23:26.039Z,19.99
2022-10-23T02:24:39.548Z,19.83
2022-10-23T02:26:18.315Z,20.17
2022-10-23T02:27:52.344Z,20.20
2022-10-23T02:29:14.751Z,19.63
2022-10-23T02:30:21.269Z,19.98
2022-10-23T02:31:31.490Z,19.62
2022-10-23T02:32:35.117Z,19.92
2022-10-23T02:33:36.964Z,19.69
2022-10-23T02:34:38.809Z,19.68
2022-10-23T02:35:40.782Z,19.17
2022-10-23T02:36:58.839Z,19.91
2022-10-23T02:38:01.501Z,19.62
2022-10-23T02:39:06.106Z,19.33
2022-10-23T02:40:10.008Z,19.78
2022-10-23T02:41:35.945Z,20.02
2022-10-23T02:42:51.017Z,19.79
2022-10-23T02:44:19.073Z,19.87
2022-10-23T02:45:43.215Z,19.93
2022-10-23T02:46:47.629Z,20.08
2022-10-23T02:48:01.848Z,19.87
2022-10-23T02:49:22.117Z,19.54
2022-10-23T02:50:33.111Z,20.05
2022-10-23T02:51:48.406Z,19.98
2022-10-23T02:53:10.647Z,20.06
2022-10-23T02:54:29.325Z,19.83
2022-10-23T02:55:52.188Z,19.84
2022-10-23T02:57:04.345Z,19.83
2022-10-23T02:58:14.923Z,19.85
2022-10-23T02:59:35.068Z,20.04
2022-10-23T03:00:42.912Z,20.02
2022-10-23T03:01:57.875Z,19.64
2022-10-23T03:03:06.740Z,19.83
2022-10-23T03:04:12.102Z,19.72
2022-10-23T03:05:21.827Z,19.97
2022-10-23T03:06:25.132Z,19.66
2022-10-23T03:07:27.353Z,19.64
2022-10-23T03:08:54.654Z,19.79
2022-10-23T03:09:56.441Z,19.76
2022-10-23T03:10:58.276Z,19.97
2022-10-23T03:12:02.482Z,19.44
2022-10-23T03:13:09.344Z,19.94
2022-10-23T03:14:16.557Z,19.69
2022-10-23T03:15:20.029Z,19.73
2022-10-23T03:16:24.155Z,19.73
2022-10-23T03:17:28.451Z,19.72
2022-10-23T03:18:33.028Z,19.66
2022-10-23T03:19:35.577Z,19.45
2022-10-23T03:20:39.109Z,19.77
2022-10-23T03:21:40.845Z,19.04
2022-10-23T03:22:43.783Z,19.66
2022-10-23T03:23:45.854Z,19.58
2022-10-23T03:24:52.644Z,19.65
2022-10-23T03:25:56.121Z,19.70
2022-10-23T03:27:09.101Z,19.81
2022-10-23T03:28:11.083Z,19.69
2022-10-23T03:29:13.166Z,19.60
2022-10-23T03:30:18.283Z,19.58
2022-10-23T03:31:23.828Z,19.66
2022-10-23T03:32:30.365Z,19.67
2022-10-23T03:33:32.438Z,19.56
2022-10-23T03:34:42.501Z,19.63
2022-10-23T03:35:44.430Z,19.77
2022-10-23T03:36:49.398Z,19.76
2022-10-23T03:37:54.776Z,19.66
2022-10-23T03:39:00.335Z,19.56
2022-10-23T03:40:02.756Z,19.89
2022-10-23T03:41:09.491Z,19.73
2022-10-23T03:42:11.429Z,19.47
2022-10-23T03:43:13.667Z,19.62
2022-10-23T03:44:16.347Z,19.78
2022-10-23T03:45:20.046Z,19.63
2022-10-23T03:46:23.262Z,19.84
2022-10-23T03:47:30.534Z,19.32
2022-10-23T03:48:32.751Z,19.40
2022-10-23T03:49:34.579Z,19.63
2022-10-23T03:50:40.625Z,19.77
2022-10-23T03:51:42.522Z,19.57
2022-10-23T03:52:44.994Z,19.30
2022-10-23T03:53:47.739Z,19.62
2022-10-23T03:54:50.937Z,19.38
2022-10-23T03:55:52.755Z,19.86
2022-10-23T03:56:57.436Z,19.70
2022-10-23T03:58:00.717Z,19.42
2022-10-23T03:59:02.794Z,19.65
2022-10-23T04:00:06.560Z,19.63
2022-10-23T04:01:18.036Z,19.65
2022-10-23T04:02:21.155Z,19.67
2022-10-23T04:03:23.100Z,19.68
2022-10-23T04:04:25.235Z,19.67
2022-10-23T04:05:27.196Z,19.71
2022-10-23T04:06:31.080Z,19.33
2022-10-23T04:07:33.968Z,19.70
2022-10-23T04:08:37.892Z,19.60
2022-10-23T04:09:46.537Z,19.73
2022-10-23T04:10:51.232Z,19.78
2022-10-23T04:11:56.612Z,19.54
2022-10-23T04:13:02.244Z,19.61
2022-10-23T04:14:07.854Z,18.97
2022-10-23T04:15:12.846Z,19.61
2022-10-23T04:16:17.639Z,19.88
2022-10-23T04:17:19.990Z,19.72
2022-10-23T04:18:24.291Z,18.98
2022-10-23T04:19:26.127Z,18.90
2022-10-23T04:20:31.803Z,19.54
2022-10-23T04:21:37.146Z,19.60
2022-10-23T04:22:38.913Z,19.85
2022-10-23T04:23:40.700Z,19.60
2022-10-23T04:24:51.884Z,19.25
2022-10-23T04:25:57.115Z,19.67
2022-10-23T04:27:00.021Z,19.39
2022-10-23T04:28:04.523Z,19.43
2022-10-23T04:29:11.198Z,19.04
2022-10-23T04:30:13.393Z,19.16
2022-10-23T04:31:15.243Z,19.62
2022-10-23T04:32:18.117Z,19.60
2022-10-23T04:33:20.058Z,19.56
2022-10-23T04:34:24.790Z,19.69
2022-10-23T04:35:28.445Z,19.69
2022-10-23T04:36:30.287Z,19.35
2022-10-23T04:37:37.442Z,19.56
2022-10-23T04:38:40.928Z,19.63
2022-10-23T04:39:42.840Z,19.63
2022-10-23T04:40:48.252Z,19.68
2022-10-23T04:41:54.805Z,19.61
2022-10-23T04:43:00.108Z,19.67
2022-10-23T04:44:06.873Z,19.70
2022-10-23T04:45:12.428Z,19.64
2022-10-23T04:46:16.310Z,19.07
2022-10-23T04:47:22.464Z,19.60
2022-10-23T04:48:34.754Z,19.67
2022-10-23T04:49:57.237Z,19.70
2022-10-23T04:51:17.272Z,19.77
2022-10-23T04:52:40.824Z,19.71
2022-10-23T04:54:01.539Z,19.57
2022-10-23T04:55:16.695Z,19.51
2022-10-23T04:56:38.839Z,19.78
2022-10-23T04:57:43.948Z,19.61
2022-10-23T04:58:46.685Z,19.69
2022-10-23T04:59:48.825Z,19.59
2022-10-23T05:00:51.202Z,19.82
2022-10-23T05:01:58.704Z,18.87
2022-10-23T05:03:00.502Z,19.47
2022-10-23T05:04:09.230Z,19.51
2022-10-23T05:05:30.982Z,19.67
2022-10-23T05:06:57.673Z,19.71
2022-10-23T05:08:28.337Z,19.73
2022-10-23T05:10:03.571Z,19.46
2022-10-23T05:11:22.283Z,19.70
2022-10-23T05:12:26.690Z,19.91
2022-10-23T05:13:28.685Z,19.24
2022-10-23T05:14:30.407Z,19.62
2022-10-23T05:15:32.603Z,19.73
2022-10-23T05:16:39.576Z,19.82
2022-10-23T05:17:46.418Z,19.51
2022-10-23T05:18:48.965Z,18.94
2022-10-23T05:19:54.848Z,19.82
2022-10-23T05:21:02.563Z,19.62
2022-10-23T05:22:05.223Z,18.90
2022-10-23T05:23:24.644Z,18.92
2022-10-23T05:24:30.507Z,19.73
2022-10-23T05:25:39.143Z,19.41
2022-10-23T05:26:51.763Z,18.97
2022-10-23T05:27:54.402Z,19.75
2022-10-23T05:28:56.892Z,19.40
2022-10-23T05:29:58.996Z,19.67
2022-10-23T05:31:05.305Z,19.82
2022-10-23T05:32:11.989Z,19.55
2022-10-23T05:33:14.179Z,19.45
2022-10-23T05:34:20.197Z,19.60
2022-10-23T05:35:23.515Z,19.80
2022-10-23T05:36:27.223Z,19.40
2022-10-23T05:37:32.810Z,19.81
2022-10-23T05:38:48.384Z,19.47
2022-10-23T05:39:54.383Z,19.64
2022-10-23T05:40:56.492Z,19.06
2022-10-23T05:41:58.908Z,18.92
2022-10-23T05:43:00.679Z,18.89
2022-10-23T05:44:17.565Z,19.73
2022-10-23T05:45:37.564Z,19.67
2022-10-23T05:47:02.307Z,19.58
2022-10-23T05:48:39.436Z,19.49
2022-10-23T05:49:43.652Z,19.80
2022-10-23T05:51:10.468Z,19.91
2022-10-23T05:52:25.989Z,19.61
2022-10-23T05:53:46.668Z,19.63
2022-10-23T05:55:15.905Z,19.75
2022-10-23T05:56:46.937Z,19.69
2022-10-23T05:57:55.374Z,19.76
2022-10-23T05:59:19.079Z,19.76
2022-10-23T06:00:33.201Z,19.41
2022-10-23T06:01:54.884Z,19.92
2022-10-23T06:03:10.617Z,19.72
2022-10-23T06:04:17.500Z,19.89
2022-10-23T06:05:32.664Z,19.74
2022-10-23T06:06:52.211Z,19.72
2022-10-23T06:07:58.613Z,19.88
2022-10-23T06:09:00.535Z,19.57
2022-10-23T06:10:02.636Z,19.47
2022-10-23T06:11:07.728Z,19.27
2022-10-23T06:12:10.358Z,19.67
2022-10-23T06:13:17.742Z,19.73
2022-10-23T06:14:19.515Z,19.79
2022-10-23T06:15:22.538Z,19.57
2022-10-23T06:16:47.386Z,19.87
2022-10-23T06:17:49.760Z,19.87
2022-10-23T06:18:51.820Z,19.19
2022-10-23T06:19:54.028Z,19.95
2022-10-23T06:20:55.796Z,19.78
2022-10-23T06:22:00.752Z,19.92
2022-10-23T06:23:15.674Z,20.03
2022-10-23T06:24:52.663Z,20.28
2022-10-23T06:25:59.713Z,20.21
2022-10-23T06:27:09.767Z,20.02
2022-10-23T06:28:20.686Z,20.20
2022-10-23T06:29:23.340Z,20.22
2022-10-23T06:30:26.101Z,20.22
2022-10-23T06:31:28.392Z,20.27
2022-10-23T06:32:32.665Z,20.19
2022-10-23T06:33:44.816Z,20.50
2022-10-23T06:34:47.336Z,20.38
2022-10-23T06:35:49.392Z,20.45
2022-10-23T06:36:51.742Z,20.47
2022-10-23T06:38:19.305Z,20.63
2022-10-23T06:39:31.234Z,20.65
2022-10-23T06:40:57.920Z,20.87
2022-10-23T06:42:07.559Z,20.69
2022-10-23T06:43:27.912Z,20.64
2022-10-23T06:44:50.380Z,20.86
2022-10-23T06:46:05.909Z,20.49
2022-10-23T06:47:34.070Z,20.63
2022-10-23T06:49:08.769Z,21.06
2022-10-23T06:50:20.858Z,21.10
2022-10-23T06:51:22.684Z,20.84
2022-10-23T06:52:45.446Z,20.92
2022-10-23T06:53:46.694Z,20.74
2022-10-23T06:55:26.558Z,21.08
2022-10-23T06:56:29.410Z,21.05
2022-10-23T06:57:32.078Z,20.71
2022-10-23T06:58:35.085Z,20.45
2022-10-23T06:59:47.581Z,20.94
2022-10-23T07:00:51.181Z,20.85
2022-10-23T07:01:55.919Z,20.79
2022-10-23T07:02:57.990Z,20.68
2022-10-23T07:04:00.387Z,21.10
2022-10-23T07:05:02.265Z,21.00
2022-10-23T07:06:06.275Z,21.38
2022-10-23T07:07:08.266Z,21.37
2022-10-23T07:08:19.713Z,21.16
2022-10-23T07:09:25.195Z,21.01
2022-10-23T07:10:48.016Z,21.12
2022-10-23T07:11:50.919Z,21.43
2022-10-23T07:12:54.404Z,21.31
2022-10-23T07:14:04.919Z,21.10
2022-10-23T07:15:08.071Z,20.93
2022-10-23T07:16:16.087Z,21.15
2022-10-23T07:17:17.975Z,21.39
2022-10-23T07:18:20.086Z,21.41
2022-10-23T07:19:40.733Z,21.38
2022-10-23T07:20:49.439Z,21.32
2022-10-23T07:21:51.609Z,20.84
2022-10-23T07:23:12.320Z,21.30
2022-10-23T07:24:15.068Z,21.12
2022-10-23T07:25:16.896Z,20.63
2022-10-23T07:26:20.314Z,20.98
2022-10-23T07:27:23.434Z,21.36
2022-10-23T07:28:30.718Z,21.52
2022-10-23T07:29:33.422Z,20.57
2022-10-23T07:30:35.196Z,21.28
2022-10-23T07:31:37.981Z,21.37
2022-10-23T07:33:14.995Z,21.68
2022-10-23T07:34:32.427Z,21.47
2022-10-23T07:35:57.561Z,21.40
2022-10-23T07:37:03.123Z,21.48
2022-10-23T07:38:05.331Z,20.94
2022-10-23T07:39:11.997Z,21.30
2022-10-23T07:40:21.901Z,21.27
2022-10-23T07:41:26.815Z,21.33
2022-10-23T07:42:28.621Z,21.39
2022-10-23T07:44:32.220Z,21.48
2022-10-23T07:45:34.582Z,21.49
2022-10-23T07:46:46.234Z,21.26
2022-10-23T07:47:52.239Z,21.53
2022-10-23T07:48:56.028Z,21.63
2022-10-23T07:49:57.820Z,21.42
2022-10-23T07:51:03.575Z,21.43
2022-10-23T07:52:06.994Z,21.63
2022-10-23T07:53:29.054Z,21.69
2022-10-23T07:54:35.665Z,21.53
2022-10-23T07:56:01.199Z,21.69
2022-10-23T07:57:22.095Z,21.58
2022-10-23T07:58:30.678Z,21.61
2022-10-23T07:59:47.171Z,21.50
2022-10-23T08:01:01.255Z,21.50
2022-10-23T08:02:12.575Z,21.47
2022-10-23T08:03:14.543Z,21.47
2022-10-23T08:04:16.455Z,21.30
2022-10-23T08:05:35.021Z,21.50
2022-10-23T08:06:38.715Z,21.67
2022-10-23T08:07:40.775Z,21.55
2022-10-23T08:08:42.642Z,21.27
2022-10-23T08:09:45.071Z,21.50
2022-10-23T08:10:48.512Z,21.50
2022-10-23T08:11:56.895Z,21.14
2022-10-23T08:13:01.542Z,21.46
2022-10-23T08:14:23.194Z,21.50
2022-10-23T08:15:25.150Z,21.48
2022-10-23T08:16:34.516Z,21.68
2022-10-23T08:17:39.351Z,21.19
2022-10-23T08:18:49.616Z,21.49
2022-10-23T08:19:52.833Z,20.80
2022-10-23T08:21:01.448Z,21.22
2022-10-23T08:22:03.939Z,20.93
2022-10-23T08:23:06.533Z,21.43
2022-10-23T08:24:13.825Z,21.55
2022-10-23T08:25:21.926Z,21.47
2022-10-23T08:26:31.279Z,21.19
2022-10-23T08:27:33.733Z,21.44
2022-10-23T08:28:36.662Z,21.67
2022-10-23T08:29:39.026Z,21.55
2022-10-23T08:30:40.776Z,21.26
2022-10-23T08:31:42.596Z,21.49
2022-10-23T08:33:07.459Z,21.53
2022-10-23T08:34:09.378Z,21.60
2022-10-23T08:35:11.880Z,21.30
2022-10-23T08:36:24.932Z,21.67
2022-10-23T08:37:26.709Z,21.48
2022-10-23T08:38:28.815Z,21.46
2022-10-23T08:39:30.657Z,21.28
2022-10-23T08:40:53.957Z,21.57
2022-10-23T08:42:24.459Z,21.65
2022-10-23T08:43:51.067Z,21.78
2022-10-23T08:45:21.883Z,21.78
2022-10-23T08:46:31.783Z,21.58
2022-10-23T08:47:56.224Z,21.48
2022-10-23T08:49:39.607Z,21.82
2022-10-23T08:50:45.942Z,21.78
2022-10-23T08:51:53.506Z,20.92
2022-10-23T08:53:03.029Z,21.68
2022-10-23T08:54:04.744Z,21.72
2022-10-23T08:55:17.703Z,21.52
2022-10-23T08:56:33.606Z,21.33
2022-10-23T08:57:43.775Z,20.80
2022-10-23T08:58:53.714Z,21.58
2022-10-23T09:00:01.471Z,21.51
2022-10-23T09:01:18.027Z,21.60
2022-10-23T09:02:26.709Z,21.26
2022-10-23T09:03:28.550Z,21.58
2022-10-23T09:04:30.709Z,21.32
2022-10-23T09:05:56.215Z,21.44
2022-10-23T09:07:38.414Z,21.63
2022-10-23T09:08:59.537Z,21.70
2022-10-23T09:10:04.188Z,21.78
2022-10-23T09:11:14.599Z,21.75
2022-10-23T09:12:27.155Z,21.75
2022-10-23T09:14:00.115Z,21.56
2022-10-23T09:15:37.393Z,21.82
2022-10-23T09:16:44.501Z,21.59
2022-10-23T09:17:47.879Z,21.76
2022-10-23T09:18:50.076Z,21.53
2022-10-23T09:20:01.921Z,21.45
2022-10-23T09:21:10.371Z,21.51
2022-10-23T09:22:13.444Z,21.52
2022-10-23T09:23:21.547Z,21.35
2022-10-23T09:24:25.982Z,21.69
2022-10-23T09:25:35.050Z,21.18
2022-10-23T09:26:37.036Z,21.57
2022-10-23T09:27:38.792Z,21.34
2022-10-23T09:28:49.842Z,21.50
2022-10-23T09:29:55.996Z,21.48
2022-10-23T09:31:12.099Z,21.67
2022-10-23T09:32:13.946Z,21.53
2022-10-23T09:33:20.281Z,21.70
2022-10-23T09:34:25.286Z,21.69
2022-10-23T09:35:29.732Z,21.18
2022-10-23T09:36:32.699Z,21.39
2022-10-23T09:37:36.005Z,21.27
2022-10-23T09:38:47.588Z,21.68
2022-10-23T09:40:00.768Z,21.25
2022-10-23T09:41:22.808Z,21.46
2022-10-23T09:42:26.131Z,21.75
2022-10-23T09:43:28.856Z,21.49
2022-10-23T09:44:36.534Z,21.60
2022-10-23T09:45:41.893Z,21.51
2022-10-23T09:46:54.162Z,21.72
2022-10-23T09:48:14.487Z,21.75
2022-10-23T09:49:23.195Z,21.60
2022-10-23T09:50:25.043Z,21.70
2022-10-23T09:51:26.773Z,21.47
2022-10-23T09:52:39.564Z,21.52
2022-10-23T09:53:52.004Z,21.53
2022-10-23T09:55:02.491Z,21.73
2022-10-23T09:56:11.962Z,21.48
2022-10-23T09:57:40.297Z,21.78
2022-10-23T09:59:03.036Z,21.79
2022-10-23T10:00:18.871Z,21.79
2022-10-23T10:01:25.722Z,21.33
2022-10-23T10:02:36.263Z,21.59
2022-10-23T10:03:55.005Z,21.59
2022-10-23T10:05:11.765Z,21.50
2022-10-23T10:06:24.177Z,21.78
2022-10-23T10:07:33.384Z,21.75
2022-10-23T10:08:51.719Z,21.78
2022-10-23T10:09:55.243Z,21.76
2022-10-23T10:11:27.798Z,21.79
2022-10-23T10:12:50.156Z,21.78
2022-10-23T10:14:22.326Z,21.82
2022-10-23T10:15:56.940Z,21.78
2022-10-23T10:17:01.502Z,21.62
2022-10-23T10:18:26.286Z,21.81
2022-10-23T10:19:36.735Z,21.80
2022-10-23T10:20:43.488Z,21.78
2022-10-23T10:21:51.077Z,21.76
2022-10-23T10:23:13.311Z,21.77
2022-10-23T10:24:52.853Z,21.65
2022-10-23T10:26:11.226Z,21.51
2022-10-23T10:27:31.205Z,21.83
2022-10-23T10:28:50.325Z,21.81
2022-10-23T10:30:01.496Z,21.82
2022-10-23T10:31:24.095Z,21.78
2022-10-23T10:32:35.632Z,21.39
2022-10-23T10:33:55.274Z,21.80
2022-10-23T10:35:08.546Z,21.82
2022-10-23T10:36:30.809Z,21.81
2022-10-23T10:37:49.358Z,20.55
2022-10-23T10:38:59.892Z,21.59
2022-10-23T10:40:24.309Z,21.71
2022-10-23T10:41:55.418Z,21.87
2022-10-23T10:43:09.347Z,21.86
2022-10-23T10:44:16.710Z,21.84
2022-10-23T10:45:36.390Z,21.82
2022-10-23T10:46:48.268Z,21.49
2022-10-23T10:47:52.611Z,21.82
2022-10-23T10:49:31.491Z,21.86
2022-10-23T10:51:11.852Z,21.76
2022-10-23T10:52:48.981Z,21.80
2022-10-23T10:53:53.978Z,21.89
2022-10-23T10:55:16.977Z,21.89
2022-10-23T10:56:20.705Z,21.81
2022-10-23T10:57:40.343Z,21.83
2022-10-23T10:58:54.567Z,21.30
2022-10-23T11:00:01.534Z,21.84
2022-10-23T11:01:13.846Z,21.64
2022-10-23T11:02:21.968Z,21.83
2022-10-23T11:03:47.152Z,21.84
2022-10-23T11:05:00.254Z,21.33
2022-10-23T11:06:04.831Z,21.39
2022-10-23T11:07:14.218Z,21.84
2022-10-23T11:08:25.040Z,21.25
2022-10-23T11:09:31.194Z,20.95
2022-10-23T11:10:37.921Z,21.61
2022-10-23T11:11:40.895Z,21.57
2022-10-23T11:12:45.472Z,21.55
2022-10-23T11:13:47.567Z,21.54
2022-10-23T11:14:50.980Z,21.66
2022-10-23T11:16:01.456Z,21.80
2022-10-23T11:17:15.156Z,21.81
2022-10-23T11:18:26.066Z,21.62
2022-10-23T11:19:31.074Z,21.84
2022-10-23T11:20:39.990Z,21.84
2022-10-23T11:22:16.854Z,21.80
2022-10-23T11:23:40.146Z,21.93
2022-10-23T11:25:12.933Z,21.94
2022-10-23T11:26:40.281Z,21.87
2022-10-23T11:28:03.549Z,21.94
2022-10-23T11:29:44.819Z,21.96
2022-10-23T11:31:08.216Z,21.95
2022-10-23T11:32:22.367Z,21.94
2022-10-23T11:34:02.535Z,21.92
2022-10-23T11:35:49.921Z,21.99
2022-10-23T11:36:58.715Z,21.75
2022-10-23T11:38:17.534Z,21.93
2022-10-23T11:39:27.393Z,21.89
2022-10-23T11:40:32.891Z,21.85
2022-10-23T11:41:34.827Z,21.85
2022-10-23T11:42:39.068Z,21.81
2022-10-23T11:44:04.098Z,21.85
2022-10-23T11:45:27.722Z,21.89
2022-10-23T11:46:32.366Z,21.89
2022-10-23T11:47:40.132Z,21.52
2022-10-23T11:48:44.397Z,21.59
2022-10-23T11:49:46.161Z,21.61
2022-10-23T11:50:47.814Z,21.82
2022-10-23T11:52:03.145Z,21.82
2022-10-23T11:53:14.962Z,21.30
2022-10-23T11:54:26.077Z,21.86
2022-10-23T11:55:31.100Z,21.85
2022-10-23T11:56:34.238Z,21.61
2022-10-23T11:57:35.965Z,21.70
2022-10-23T11:58:43.781Z,21.60
2022-10-23T11:59:45.425Z,21.85
2022-10-23T12:01:20.164Z,21.68
2022-10-23T12:02:38.288Z,21.89
2022-10-23T12:03:48.747Z,21.76
2022-10-23T12:04:53.353Z,21.48
2022-10-23T12:06:05.509Z,21.50
2022-10-23T12:07:23.097Z,21.67
2022-10-23T12:08:29.472Z,21.90
2022-10-23T12:09:43.722Z,21.74
2022-10-23T12:10:56.068Z,21.71
2022-10-23T12:12:03.501Z,21.90
2022-10-23T12:13:26.468Z,21.85
2022-10-23T12:14:36.403Z,21.91
2022-10-23T12:15:38.146Z,21.66
2022-10-23T12:16:39.864Z,21.62
2022-10-23T12:17:44.180Z,21.72
2022-10-23T12:18:54.112Z,21.60
2022-10-23T12:20:21.460Z,21.77
2022-10-23T12:21:28.480Z,21.91
2022-10-23T12:22:39.614Z,21.66
2022-10-23T12:23:59.769Z,21.93
2022-10-23T12:25:17.373Z,21.95
2022-10-23T12:26:34.257Z,21.93
2022-10-23T12:27:45.461Z,21.92
2022-10-23T12:29:19.007Z,21.61
2022-10-23T12:30:31.676Z,21.94
2022-10-23T12:31:51.605Z,21.93
2022-10-23T12:32:59.158Z,21.93
2022-10-23T12:34:42.759Z,21.74
2022-10-23T12:36:17.179Z,21.86
2022-10-23T12:37:51.510Z,21.99
2022-10-23T12:38:54.904Z,21.91
2022-10-23T12:39:57.072Z,21.79
2022-10-23T12:41:10.484Z,21.88
2022-10-23T12:42:23.506Z,21.67
2022-10-23T12:43:28.704Z,21.62
2022-10-23T12:44:31.068Z,21.40
2022-10-23T12:45:38.752Z,21.64
2022-10-23T12:46:43.539Z,21.26
2022-10-23T12:47:47.510Z,21.37
2022-10-23T12:48:51.073Z,21.43
2022-10-23T12:49:52.903Z,21.57
2022-10-23T12:50:56.291Z,21.75
2022-10-23T12:52:04.837Z,21.66
2022-10-23T12:53:08.357Z,21.84
2022-10-23T12:54:19.482Z,21.56
2022-10-23T12:55:22.701Z,21.85
2022-10-23T12:56:27.127Z,21.69
2022-10-23T12:57:31.402Z,21.61
2022-10-23T12:58:35.295Z,21.83
2022-10-23T12:59:42.812Z,21.69
2022-10-23T13:00:51.752Z,21.84
2022-10-23T13:01:54.998Z,21.78
2022-10-23T13:03:02.248Z,21.84
2022-10-23T13:04:29.151Z,21.80
2022-10-23T13:05:32.495Z,21.50
2022-10-23T13:06:34.384Z,21.67
2022-10-23T13:07:42.726Z,21.33
2022-10-23T13:08:47.726Z,21.45
2022-10-23T13:10:14.373Z,21.65
2022-10-23T13:11:26.773Z,21.70
2022-10-23T13:12:34.383Z,21.43
2022-10-23T13:13:36.309Z,21.86
2022-10-23T13:14:44.486Z,21.60
2022-10-23T13:15:46.528Z,21.69
2022-10-23T13:16:59.401Z,21.84
2022-10-23T13:18:03.402Z,21.47
2022-10-23T13:19:05.174Z,21.65
2022-10-23T13:20:17.164Z,21.44
2022-10-23T13:21:28.536Z,21.85
2022-10-23T13:22:30.373Z,21.62
2022-10-23T13:23:36.125Z,20.96
2022-10-23T13:24:41.202Z,21.76
2022-10-23T13:25:43.036Z,21.69
2022-10-23T13:26:47.688Z,21.83
2022-10-23T13:27:49.935Z,20.98
2022-10-23T13:28:52.175Z,21.41
2022-10-23T13:29:53.968Z,21.49
2022-10-23T13:31:06.569Z,21.83
2022-10-23T13:32:12.608Z,21.83
2022-10-23T13:33:24.242Z,21.66
2022-10-23T13:34:28.839Z,21.57
2022-10-23T13:35:32.217Z,21.65
2022-10-23T13:36:39.475Z,21.38
2022-10-23T13:37:41.298Z,21.70
2022-10-23T13:39:02.356Z,21.55
2022-10-23T13:40:09.745Z,21.66
2022-10-23T13:41:19.981Z,21.87
2022-10-23T13:42:21.904Z,21.67
2022-10-23T13:43:25.818Z,21.76
2022-10-23T13:44:27.808Z,21.68
2022-10-23T13:45:29.606Z,21.22
2022-10-23T13:46:31.467Z,21.71
2022-10-23T13:47:33.198Z,21.78
2022-10-23T13:48:34.967Z,21.54
2022-10-23T13:49:36.697Z,21.53
2022-10-23T13:50:38.509Z,21.70
2022-10-23T13:52:00.556Z,21.87
2022-10-23T13:53:05.374Z,21.56
2022-10-23T13:54:14.662Z,21.86
2022-10-23T13:55:25.512Z,21.71
2022-10-23T13:56:28.282Z,21.88
2022-10-23T13:57:30.007Z,21.76
2022-10-23T13:58:31.946Z,21.60
2022-10-23T13:59:33.632Z,21.80
2022-10-23T14:00:36.096Z,21.54
2022-10-23T14:01:38.500Z,21.03
2022-10-23T14:02:40.389Z,21.59
2022-10-23T14:03:42.227Z,21.58
2022-10-23T14:04:44.173Z,21.29
2022-10-23T14:05:46.177Z,21.64
2022-10-23T14:06:48.401Z,21.01
2022-10-23T14:07:50.155Z,21.68
2022-10-23T14:08:52.168Z,21.63
2022-10-23T14:09:53.901Z,21.40
2022-10-23T14:10:55.611Z,21.68
2022-10-23T14:11:57.511Z,21.59
2022-10-23T14:12:59.306Z,21.45
2022-10-23T14:14:01.203Z,20.84
2022-10-23T14:15:03.189Z,20.96
2022-10-23T14:16:05.653Z,21.57
2022-10-23T14:17:07.367Z,20.86
2022-10-23T14:18:09.174Z,21.36
2022-10-23T14:19:11.933Z,21.82
2022-10-23T14:20:13.710Z,21.68
2022-10-23T14:21:19.951Z,21.82
2022-10-23T14:22:21.791Z,21.55
2022-10-23T14:23:24.092Z,21.75
2022-10-23T14:24:25.994Z,21.64
2022-10-23T14:25:28.257Z,21.59
2022-10-23T14:26:30.476Z,21.82
2022-10-23T14:27:32.307Z,21.58
2022-10-23T14:28:34.670Z,21.83
2022-10-23T14:29:36.449Z,21.61
2022-10-23T14:30:38.225Z,21.40
2022-10-23T14:31:40.127Z,21.61
2022-10-23T14:32:42.535Z,21.35
2022-10-23T14:33:45.891Z,21.83
2022-10-23T14:34:52.753Z,21.83
2022-10-23T14:35:54.560Z,21.70
2022-10-23T14:37:08.143Z,21.75
2022-10-23T14:38:10.425Z,21.85
2022-10-23T14:39:12.540Z,21.87
2022-10-23T14:40:14.352Z,21.69
2022-10-23T14:41:17.594Z,21.64
2022-10-23T14:42:19.618Z,21.64
2022-10-23T14:43:22.608Z,21.63
2022-10-23T14:44:24.651Z,21.33
2022-10-23T14:45:26.492Z,21.55
2022-10-23T14:46:29.550Z,21.86
2022-10-23T14:47:31.996Z,21.87
2022-10-23T14:48:37.888Z,21.76
2022-10-23T14:49:40.451Z,21.89
2022-10-23T14:50:47.241Z,21.88
2022-10-23T14:51:48.993Z,21.59
2022-10-23T14:52:51.006Z,21.67
2022-10-23T14:53:59.594Z,21.62